Terminal Aerodrome Forecast
Issued by NWS

Home | Current Version | Previous Version | Text Only | Print | Product List | Glossary Off
Versions: 1 2 3 4 5 6 7 8 9 10 11 12

000
FTUS41 KCLE 120500
TAFFDY
TAF
KFDY 120537Z 1206/1306 11004KT P6SM BKN120
     FM121300 20008KT P6SM SCT120 BKN250
     FM122300 22009KT P6SM VCSH BKN040 PROB30 1223/1302 5SM TSRA BR
      BKN030CB=

USA.gov is the U.S. government's official web portal to all federal, state and local government web resources and services.